sensor_id;sensor_type;location;lat;lon;timestamp;P1;durP1;ratioP1;P2;durP2;ratioP2
37383;SDS011;23258;49.718;11.082;2023-07-22T06:07:36;3.90;;;3.53;;
37383;SDS011;23258;49.718;11.082;2023-07-22T06:10:06;4.00;;;3.60;;
37383;SDS011;23258;49.718;11.082;2023-07-22T06:12:36;3.58;;;3.03;;
37383;SDS011;23258;49.718;11.082;2023-07-22T06:15:08;6.35;;;3.33;;
37383;SDS011;23258;49.718;11.082;2023-07-22T06:17:38;5.13;;;3.53;;
37383;SDS011;23258;49.718;11.082;2023-07-22T06:20:08;4.25;;;3.45;;
37383;SDS011;23258;49.718;11.082;2023-07-22T06:22:41;3.92;;;3.53;;
37383;SDS011;23258;49.718;11.082;2023-07-22T06:25:11;3.92;;;3.58;;
37383;SDS011;23258;49.718;11.082;2023-07-22T06:27:40;3.97;;;3.60;;
37383;SDS011;23258;49.718;11.082;2023-07-22T06:30:10;4.38;;;3.97;;
37383;SDS011;23258;49.718;11.082;2023-07-22T06:32:40;5.07;;;4.57;;
37383;SDS011;23258;49.718;11.082;2023-07-22T06:35:09;7.03;;;4.30;;
37383;SDS011;23258;49.718;11.082;2023-07-22T06:37:42;4.60;;;4.20;;
37383;SDS011;23258;49.718;11.082;2023-07-22T06:40:12;4.15;;;3.55;;
37383;SDS011;23258;49.718;11.082;2023-07-22T06:42:41;4.45;;;4.00;;
37383;SDS011;23258;49.718;11.082;2023-07-22T06:45:11;4.95;;;4.45;;
37383;SDS011;23258;49.718;11.082;2023-07-22T06:47:41;5.18;;;3.67;;
37383;SDS011;23258;49.718;11.082;2023-07-22T06:50:10;4.55;;;4.15;;
37383;SDS011;23258;49.718;11.082;2023-07-22T06:52:42;4.70;;;4.03;;
37383;SDS011;23258;49.718;11.082;2023-07-22T06:55:12;4.78;;;4.38;;
37383;SDS011;23258;49.718;11.082;2023-07-22T06:57:42;4.22;;;3.83;;
37383;SDS011;23258;49.718;11.082;2023-07-22T07:00:12;5.25;;;4.47;;
37383;SDS011;23258;49.718;11.082;2023-07-22T07:02:44;4.72;;;3.80;;
37383;SDS011;23258;49.718;11.082;2023-07-22T07:05:14;6.00;;;3.97;;
37383;SDS011;23258;49.718;11.082;2023-07-22T07:07:46;4.15;;;3.85;;
37383;SDS011;23258;49.718;11.082;2023-07-22T07:10:16;5.05;;;4.05;;
37383;SDS011;23258;49.718;11.082;2023-07-22T07:12:46;5.03;;;4.40;;
37383;SDS011;23258;49.718;11.082;2023-07-22T07:15:16;3.92;;;3.63;;
37383;SDS011;23258;49.718;11.082;2023-07-22T07:17:46;5.78;;;3.83;;
37383;SDS011;23258;49.718;11.082;2023-07-22T07:20:16;4.57;;;4.18;;
37383;SDS011;23258;49.718;11.082;2023-07-22T07:22:48;5.78;;;4.07;;
37383;SDS011;23258;49.718;11.082;2023-07-22T07:25:18;3.63;;;3.33;;
37383;SDS011;23258;49.718;11.082;2023-07-22T07:27:48;3.60;;;3.38;;
37383;SDS011;23258;49.718;11.082;2023-07-22T07:30:18;4.95;;;3.72;;
37383;SDS011;23258;49.718;11.082;2023-07-22T07:32:48;4.47;;;4.07;;
37383;SDS011;23258;49.718;11.082;2023-07-22T07:35:17;3.85;;;3.53;;
37383;SDS011;23258;49.718;11.082;2023-07-22T07:37:50;7.20;;;4.32;;
37383;SDS011;23258;49.718;11.082;2023-07-22T07:40:19;4.93;;;4.25;;
37383;SDS011;23258;49.718;11.082;2023-07-22T07:42:49;4.65;;;3.97;;
37383;SDS011;23258;49.718;11.082;2023-07-22T07:45:19;4.15;;;3.78;;
37383;SDS011;23258;49.718;11.082;2023-07-22T07:47:48;4.72;;;3.83;;
37383;SDS011;23258;49.718;11.082;2023-07-22T07:50:19;4.18;;;3.88;;
37383;SDS011;23258;49.718;11.082;2023-07-22T07:52:51;4.57;;;4.18;;
37383;SDS011;23258;49.718;11.082;2023-07-22T07:55:21;7.55;;;3.85;;
37383;SDS011;23258;49.718;11.082;2023-07-22T07:57:51;4.35;;;3.95;;
37383;SDS011;23258;49.718;11.082;2023-07-22T08:00:21;4.30;;;3.90;;
37383;SDS011;23258;49.718;11.082;2023-07-22T08:02:51;4.28;;;3.88;;
37383;SDS011;23258;49.718;11.082;2023-07-22T08:05:20;4.88;;;3.97;;
37383;SDS011;23258;49.718;11.082;2023-07-22T08:07:53;4.95;;;3.85;;
37383;SDS011;23258;49.718;11.082;2023-07-22T08:10:23;3.65;;;3.35;;
37383;SDS011;23258;49.718;11.082;2023-07-22T08:12:52;6.22;;;4.45;;
37383;SDS011;23258;49.718;11.082;2023-07-22T08:15:22;4.28;;;3.85;;
37383;SDS011;23258;49.718;11.082;2023-07-22T08:17:52;4.53;;;4.13;;
37383;SDS011;23258;49.718;11.082;2023-07-22T08:20:22;4.28;;;3.88;;
37383;SDS011;23258;49.718;11.082;2023-07-22T08:22:54;6.03;;;4.50;;
37383;SDS011;23258;49.718;11.082;2023-07-22T08:25:24;5.53;;;4.25;;
37383;SDS011;23258;49.718;11.082;2023-07-22T08:27:54;5.50;;;4.25;;
37383;SDS011;23258;49.718;11.082;2023-07-22T08:30:23;5.45;;;4.22;;
37383;SDS011;23258;49.718;11.082;2023-07-22T08:32:53;4.20;;;3.80;;
37383;SDS011;23258;49.718;11.082;2023-07-22T08:35:23;4.55;;;4.13;;
37383;SDS011;23258;49.718;11.082;2023-07-22T08:37:55;5.43;;;3.70;;
37383;SDS011;23258;49.718;11.082;2023-07-22T08:40:25;4.53;;;4.13;;
37383;SDS011;23258;49.718;11.082;2023-07-22T08:42:55;4.45;;;3.63;;
37383;SDS011;23258;49.718;11.082;2023-07-22T08:45:25;4.97;;;4.03;;
37383;SDS011;23258;49.718;11.082;2023-07-22T08:47:57;4.38;;;3.97;;
37383;SDS011;23258;49.718;11.082;2023-07-22T08:50:29;6.13;;;4.13;;
37383;SDS011;23258;49.718;11.082;2023-07-22T08:53:01;5.15;;;4.72;;
37383;SDS011;23258;49.718;11.082;2023-07-22T08:55:31;4.60;;;4.20;;
37383;SDS011;23258;49.718;11.082;2023-07-22T08:58:01;5.90;;;4.55;;
37383;SDS011;23258;49.718;11.082;2023-07-22T09:00:31;5.13;;;4.43;;
37383;SDS011;23258;49.718;11.082;2023-07-22T09:03:01;5.32;;;4.82;;
37383;SDS011;23258;49.718;11.082;2023-07-22T09:05:31;6.72;;;4.82;;
37383;SDS011;23258;49.718;11.082;2023-07-22T09:08:06;5.80;;;4.75;;
37383;SDS011;23258;49.718;11.082;2023-07-22T09:10:36;5.38;;;4.88;;
37383;SDS011;23258;49.718;11.082;2023-07-22T09:13:07;5.65;;;5.00;;
37383;SDS011;23258;49.718;11.082;2023-07-22T09:15:37;5.47;;;4.53;;
37383;SDS011;23258;49.718;11.082;2023-07-22T09:18:06;4.40;;;3.97;;
37383;SDS011;23258;49.718;11.082;2023-07-22T09:20:36;5.80;;;4.03;;
37383;SDS011;23258;49.718;11.082;2023-07-22T09:23:08;5.43;;;4.18;;
37383;SDS011;23258;49.718;11.082;2023-07-22T09:25:41;4.22;;;3.78;;
37383;SDS011;23258;49.718;11.082;2023-07-22T09:28:11;5.50;;;3.92;;
37383;SDS011;23258;49.718;11.082;2023-07-22T09:30:41;3.95;;;3.05;;
37383;SDS011;23258;49.718;11.082;2023-07-22T09:33:20;3.78;;;3.38;;
37383;SDS011;23258;49.718;11.082;2023-07-22T09:35:52;3.72;;;3.42;;
37383;SDS011;23258;49.718;11.082;2023-07-22T09:38:26;3.80;;;3.40;;
37383;SDS011;23258;49.718;11.082;2023-07-22T09:40:56;4.07;;;3.67;;
37383;SDS011;23258;49.718;11.082;2023-07-22T09:43:26;4.90;;;3.58;;
37383;SDS011;23258;49.718;11.082;2023-07-22T09:45:55;4.05;;;3.70;;
37383;SDS011;23258;49.718;11.082;2023-07-22T09:48:27;4.15;;;3.83;;
37383;SDS011;23258;49.718;11.082;2023-07-22T09:50:57;3.00;;;2.80;;
37383;SDS011;23258;49.718;11.082;2023-07-22T09:53:30;4.18;;;3.67;;
37383;SDS011;23258;49.718;11.082;2023-07-22T09:56:02;3.92;;;3.45;;
37383;SDS011;23258;49.718;11.082;2023-07-22T09:58:32;4.45;;;3.05;;
37383;SDS011;23258;49.718;11.082;2023-07-22T10:01:03;4.72;;;3.50;;
37383;SDS011;23258;49.718;11.082;2023-07-22T10:03:33;4.07;;;3.67;;
37383;SDS011;23258;49.718;11.082;2023-07-22T10:06:04;3.70;;;3.40;;
37383;SDS011;23258;49.718;11.082;2023-07-22T10:08:37;3.75;;;3.30;;
37383;SDS011;23258;49.718;11.082;2023-07-22T10:11:08;3.35;;;2.88;;
37383;SDS011;23258;49.718;11.082;2023-07-22T10:13:39;3.92;;;3.53;;
37383;SDS011;23258;49.718;11.082;2023-07-22T10:16:09;3.50;;;3.22;;
37383;SDS011;23258;49.718;11.082;2023-07-22T10:18:39;3.50;;;2.97;;
37383;SDS011;23258;49.718;11.082;2023-07-22T10:21:09;3.80;;;3.50;;
37383;SDS011;23258;49.718;11.082;2023-07-22T10:23:42;2.97;;;2.75;;
37383;SDS011;23258;49.718;11.082;2023-07-22T10:26:14;2.78;;;2.58;;
37383;SDS011;23258;49.718;11.082;2023-07-22T10:28:51;4.78;;;3.03;;
37383;SDS011;23258;49.718;11.082;2023-07-22T10:31:21;4.03;;;3.33;;
37383;SDS011;23258;49.718;11.082;2023-07-22T10:33:51;4.15;;;2.97;;
37383;SDS011;23258;49.718;11.082;2023-07-22T10:36:21;5.13;;;3.28;;
37383;SDS011;23258;49.718;11.082;2023-07-22T10:39:00;3.42;;;3.05;;
37383;SDS011;23258;49.718;11.082;2023-07-22T10:41:31;2.97;;;2.78;;
37383;SDS011;23258;49.718;11.082;2023-07-22T10:44:01;3.25;;;3.05;;
37383;SDS011;23258;49.718;11.082;2023-07-22T10:46:31;3.47;;;3.17;;
37383;SDS011;23258;49.718;11.082;2023-07-22T10:49:09;2.67;;;2.47;;
37383;SDS011;23258;49.718;11.082;2023-07-22T10:51:39;4.13;;;3.33;;
37383;SDS011;23258;49.718;11.082;2023-07-22T10:54:15;3.85;;;2.80;;
37383;SDS011;23258;49.718;11.082;2023-07-22T10:57:02;3.35;;;2.83;;
37383;SDS011;23258;49.718;11.082;2023-07-22T10:59:32;3.13;;;2.83;;
37383;SDS011;23258;49.718;11.082;2023-07-22T11:02:03;3.03;;;2.72;;
37383;SDS011;23258;49.718;11.082;2023-07-22T11:04:36;2.80;;;2.60;;
37383;SDS011;23258;49.718;11.082;2023-07-22T11:07:29;2.78;;;2.58;;
37383;SDS011;23258;49.718;11.082;2023-07-22T11:10:13;2.97;;;2.67;;
37383;SDS011;23258;49.718;11.082;2023-07-22T11:12:44;2.50;;;2.30;;
37383;SDS011;23258;49.718;11.082;2023-07-22T11:15:14;3.10;;;2.60;;
37383;SDS011;23258;49.718;11.082;2023-07-22T11:17:44;3.00;;;2.80;;
37383;SDS011;23258;49.718;11.082;2023-07-22T11:20:14;2.72;;;2.50;;
37383;SDS011;23258;49.718;11.082;2023-07-22T11:22:44;2.83;;;2.53;;
37383;SDS011;23258;49.718;11.082;2023-07-22T11:25:19;2.25;;;2.13;;
37383;SDS011;23258;49.718;11.082;2023-07-22T11:27:49;2.25;;;2.15;;
37383;SDS011;23258;49.718;11.082;2023-07-22T11:30:19;2.20;;;2.00;;
37383;SDS011;23258;49.718;11.082;2023-07-22T11:32:49;3.00;;;2.80;;
37383;SDS011;23258;49.718;11.082;2023-07-22T11:35:19;2.88;;;2.60;;
37383;SDS011;23258;49.718;11.082;2023-07-22T11:37:48;3.20;;;2.60;;
37383;SDS011;23258;49.718;11.082;2023-07-22T11:40:20;2.85;;;2.60;;
37383;SDS011;23258;49.718;11.082;2023-07-22T11:42:50;3.97;;;3.05;;
37383;SDS011;23258;49.718;11.082;2023-07-22T11:45:20;2.28;;;2.17;;
37383;SDS011;23258;49.718;11.082;2023-07-22T11:47:50;3.67;;;2.80;;
37383;SDS011;23258;49.718;11.082;2023-07-22T11:50:30;2.58;;;2.38;;
37383;SDS011;23258;49.718;11.082;2023-07-22T11:52:59;2.90;;;2.67;;
37383;SDS011;23258;49.718;11.082;2023-07-22T11:55:32;3.15;;;2.88;;
37383;SDS011;23258;49.718;11.082;2023-07-22T11:58:07;3.08;;;2.30;;
37383;SDS011;23258;49.718;11.082;2023-07-22T12:00:37;3.72;;;2.80;;
37383;SDS011;23258;49.718;11.082;2023-07-22T12:03:08;2.40;;;2.28;;
37383;SDS011;23258;49.718;11.082;2023-07-22T12:05:38;2.35;;;2.15;;
37383;SDS011;23258;49.718;11.082;2023-07-22T12:08:07;2.72;;;2.53;;
37383;SDS011;23258;49.718;11.082;2023-07-22T12:10:46;2.72;;;2.53;;
37383;SDS011;23258;49.718;11.082;2023-07-22T12:13:24;2.63;;;2.42;;
37383;SDS011;23258;49.718;11.082;2023-07-22T12:16:01;2.60;;;2.40;;
37383;SDS011;23258;49.718;11.082;2023-07-22T12:18:40;3.05;;;2.13;;
37383;SDS011;23258;49.718;11.082;2023-07-22T12:21:10;3.08;;;2.40;;
37383;SDS011;23258;49.718;11.082;2023-07-22T12:23:40;2.80;;;2.58;;
37383;SDS011;23258;49.718;11.082;2023-07-22T12:26:12;2.53;;;2.00;;
37383;SDS011;23258;49.718;11.082;2023-07-22T12:28:42;4.47;;;2.40;;
37383;SDS011;23258;49.718;11.082;2023-07-22T12:31:12;2.17;;;1.95;;
37383;SDS011;23258;49.718;11.082;2023-07-22T12:33:42;2.45;;;2.20;;
37383;SDS011;23258;49.718;11.082;2023-07-22T12:36:12;4.63;;;2.50;;
37383;SDS011;23258;49.718;11.082;2023-07-22T12:38:41;2.65;;;2.42;;
37383;SDS011;23258;49.718;11.082;2023-07-22T12:41:14;2.55;;;2.35;;
37383;SDS011;23258;49.718;11.082;2023-07-22T12:43:43;4.97;;;2.35;;
37383;SDS011;23258;49.718;11.082;2023-07-22T12:46:13;2.20;;;2.10;;
37383;SDS011;23258;49.718;11.082;2023-07-22T12:48:43;2.67;;;2.47;;
37383;SDS011;23258;49.718;11.082;2023-07-22T12:51:13;2.88;;;2.22;;
37383;SDS011;23258;49.718;11.082;2023-07-22T12:53:42;2.63;;;2.40;;
37383;SDS011;23258;49.718;11.082;2023-07-22T12:56:14;2.33;;;2.10;;
37383;SDS011;23258;49.718;11.082;2023-07-22T12:58:44;3.42;;;2.50;;
37383;SDS011;23258;49.718;11.082;2023-07-22T13:01:14;2.58;;;2.38;;
37383;SDS011;23258;49.718;11.082;2023-07-22T13:03:44;2.58;;;2.38;;
37383;SDS011;23258;49.718;11.082;2023-07-22T13:06:14;2.70;;;2.50;;
37383;SDS011;23258;49.718;11.082;2023-07-22T13:08:46;2.35;;;2.13;;
37383;SDS011;23258;49.718;11.082;2023-07-22T13:11:23;2.60;;;2.40;;
37383;SDS011;23258;49.718;11.082;2023-07-22T13:13:53;2.75;;;2.33;;
37383;SDS011;23258;49.718;11.082;2023-07-22T13:16:22;2.15;;;2.03;;
37383;SDS011;23258;49.718;11.082;2023-07-22T13:18:52;2.97;;;2.13;;
37383;SDS011;23258;49.718;11.082;2023-07-22T13:21:22;2.70;;;2.13;;
37383;SDS011;23258;49.718;11.082;2023-07-22T13:23:52;2.30;;;2.10;;
37383;SDS011;23258;49.718;11.082;2023-07-22T13:26:24;2.35;;;2.15;;
37383;SDS011;23258;49.718;11.082;2023-07-22T13:28:54;2.38;;;2.17;;
37383;SDS011;23258;49.718;11.082;2023-07-22T13:31:24;3.28;;;2.30;;
37383;SDS011;23258;49.718;11.082;2023-07-22T13:33:54;3.50;;;2.25;;
37383;SDS011;23258;49.718;11.082;2023-07-22T13:36:23;2.15;;;2.05;;
37383;SDS011;23258;49.718;11.082;2023-07-22T13:38:53;4.07;;;2.65;;
37383;SDS011;23258;49.718;11.082;2023-07-22T13:41:26;2.63;;;2.42;;
37383;SDS011;23258;49.718;11.082;2023-07-22T13:43:56;2.13;;;2.03;;
37383;SDS011;23258;49.718;11.082;2023-07-22T13:46:25;3.58;;;2.22;;
37383;SDS011;23258;49.718;11.082;2023-07-22T13:48:55;4.10;;;2.30;;
37383;SDS011;23258;49.718;11.082;2023-07-22T13:51:24;3.15;;;2.35;;
37383;SDS011;23258;49.718;11.082;2023-07-22T13:53:55;2.33;;;2.13;;
37383;SDS011;23258;49.718;11.082;2023-07-22T13:56:27;1.98;;;1.88;;
37383;SDS011;23258;49.718;11.082;2023-07-22T13:58:57;1.95;;;1.85;;
37383;SDS011;23258;49.718;11.082;2023-07-22T14:01:27;2.47;;;2.28;;
37383;SDS011;23258;49.718;11.082;2023-07-22T14:03:57;2.00;;;1.90;;
37383;SDS011;23258;49.718;11.082;2023-07-22T14:06:27;2.97;;;1.80;;
37383;SDS011;23258;49.718;11.082;2023-07-22T14:09:00;2.33;;;1.83;;
37383;SDS011;23258;49.718;11.082;2023-07-22T14:11:32;7.70;;;2.42;;
37383;SDS011;23258;49.718;11.082;2023-07-22T14:14:02;2.40;;;2.20;;
37383;SDS011;23258;49.718;11.082;2023-07-22T14:16:32;1.80;;;1.70;;
37383;SDS011;23258;49.718;11.082;2023-07-22T14:19:02;1.95;;;1.77;;
37383;SDS011;23258;49.718;11.082;2023-07-22T14:21:32;2.13;;;1.92;;
37383;SDS011;23258;49.718;11.082;2023-07-22T14:24:02;2.85;;;1.70;;
37383;SDS011;23258;49.718;11.082;2023-07-22T14:26:35;1.60;;;1.50;;
37383;SDS011;23258;49.718;11.082;2023-07-22T14:29:04;1.60;;;1.45;;
37383;SDS011;23258;49.718;11.082;2023-07-22T14:31:34;1.73;;;1.60;;
37383;SDS011;23258;49.718;11.082;2023-07-22T14:34:04;1.85;;;1.75;;
37383;SDS011;23258;49.718;11.082;2023-07-22T14:36:33;1.95;;;1.70;;
37383;SDS011;23258;49.718;11.082;2023-07-22T14:39:03;2.25;;;2.15;;
37383;SDS011;23258;49.718;11.082;2023-07-22T14:41:35;2.25;;;2.10;;
37383;SDS011;23258;49.718;11.082;2023-07-22T14:44:05;2.58;;;2.38;;
37383;SDS011;23258;49.718;11.082;2023-07-22T14:46:35;2.13;;;1.95;;
37383;SDS011;23258;49.718;11.082;2023-07-22T14:49:05;2.55;;;2.17;;
37383;SDS011;23258;49.718;11.082;2023-07-22T14:51:36;2.30;;;2.08;;
37383;SDS011;23258;49.718;11.082;2023-07-22T14:54:06;2.03;;;1.92;;
37383;SDS011;23258;49.718;11.082;2023-07-22T14:56:38;2.63;;;2.45;;
37383;SDS011;23258;49.718;11.082;2023-07-22T14:59:08;1.60;;;1.50;;
37383;SDS011;23258;49.718;11.082;2023-07-22T15:01:37;1.98;;;1.88;;
37383;SDS011;23258;49.718;11.082;2023-07-22T15:04:08;1.92;;;1.83;;
37383;SDS011;23258;49.718;11.082;2023-07-22T15:06:37;1.92;;;1.80;;
37383;SDS011;23258;49.718;11.082;2023-07-22T15:09:07;2.10;;;1.50;;
37383;SDS011;23258;49.718;11.082;2023-07-22T15:11:39;1.98;;;1.73;;
37383;SDS011;23258;49.718;11.082;2023-07-22T15:14:09;4.43;;;1.95;;
37383;SDS011;23258;49.718;11.082;2023-07-22T15:16:39;1.95;;;1.83;;
37383;SDS011;23258;49.718;11.082;2023-07-22T15:19:09;1.65;;;1.55;;
37383;SDS011;23258;49.718;11.082;2023-07-22T15:21:39;2.60;;;1.85;;
37383;SDS011;23258;49.718;11.082;2023-07-22T15:24:08;2.25;;;2.00;;
37383;SDS011;23258;49.718;11.082;2023-07-22T15:26:41;1.80;;;1.70;;
37383;SDS011;23258;49.718;11.082;2023-07-22T15:29:10;5.72;;;2.30;;
37383;SDS011;23258;49.718;11.082;2023-07-22T15:31:40;1.63;;;1.55;;
37383;SDS011;23258;49.718;11.082;2023-07-22T15:34:10;2.42;;;1.60;;
37383;SDS011;23258;49.718;11.082;2023-07-22T15:36:39;2.50;;;2.20;;
37383;SDS011;23258;49.718;11.082;2023-07-22T15:39:09;2.65;;;2.45;;
37383;SDS011;23258;49.718;11.082;2023-07-22T15:41:41;1.90;;;1.42;;
37383;SDS011;23258;49.718;11.082;2023-07-22T15:44:11;1.83;;;1.67;;
37383;SDS011;23258;49.718;11.082;2023-07-22T15:46:41;1.70;;;1.60;;
37383;SDS011;23258;49.718;11.082;2023-07-22T15:49:10;1.70;;;1.60;;
37383;SDS011;23258;49.718;11.082;2023-07-22T15:51:40;1.95;;;1.77;;
37383;SDS011;23258;49.718;11.082;2023-07-22T15:54:10;2.15;;;1.90;;
37383;SDS011;23258;49.718;11.082;2023-07-22T15:56:43;2.17;;;1.98;;
37383;SDS011;23258;49.718;11.082;2023-07-22T15:59:13;1.92;;;1.83;;
37383;SDS011;23258;49.718;11.082;2023-07-22T16:01:42;1.67;;;1.58;;
37383;SDS011;23258;49.718;11.082;2023-07-22T16:04:12;1.67;;;1.58;;
37383;SDS011;23258;49.718;11.082;2023-07-22T16:06:42;2.17;;;1.83;;
37383;SDS011;23258;49.718;11.082;2023-07-22T16:09:11;2.33;;;2.13;;
37383;SDS011;23258;49.718;11.082;2023-07-22T16:11:44;2.00;;;1.80;;
37383;SDS011;23258;49.718;11.082;2023-07-22T16:14:14;1.63;;;1.52;;
37383;SDS011;23258;49.718;11.082;2023-07-22T16:16:44;1.70;;;1.60;;
37383;SDS011;23258;49.718;11.082;2023-07-22T16:19:14;3.85;;;1.85;;
37383;SDS011;23258;49.718;11.082;2023-07-22T16:21:43;2.33;;;2.03;;
37383;SDS011;23258;49.718;11.082;2023-07-22T16:24:13;1.48;;;1.38;;
37383;SDS011;23258;49.718;11.082;2023-07-22T16:26:45;2.10;;;1.63;;
37383;SDS011;23258;49.718;11.082;2023-07-22T16:29:15;1.92;;;1.50;;
37383;SDS011;23258;49.718;11.082;2023-07-22T16:31:47;2.08;;;1.80;;
37383;SDS011;23258;49.718;11.082;2023-07-22T16:34:16;1.65;;;1.55;;
37383;SDS011;23258;49.718;11.082;2023-07-22T16:36:48;7.05;;;2.20;;
37383;SDS011;23258;49.718;11.082;2023-07-22T16:39:18;1.27;;;1.20;;
37383;SDS011;23258;49.718;11.082;2023-07-22T16:41:51;4.05;;;1.95;;
37383;SDS011;23258;49.718;11.082;2023-07-22T16:44:21;2.00;;;1.90;;
37383;SDS011;23258;49.718;11.082;2023-07-22T16:46:52;1.77;;;1.60;;
37383;SDS011;23258;49.718;11.082;2023-07-22T16:49:22;5.50;;;1.90;;
37383;SDS011;23258;49.718;11.082;2023-07-22T16:51:51;2.63;;;1.98;;
37383;SDS011;23258;49.718;11.082;2023-07-22T16:54:21;1.88;;;1.63;;
37383;SDS011;23258;49.718;11.082;2023-07-22T16:56:55;2.25;;;1.55;;
37383;SDS011;23258;49.718;11.082;2023-07-22T16:59:25;1.70;;;1.60;;
37383;SDS011;23258;49.718;11.082;2023-07-22T17:01:54;2.53;;;1.95;;
37383;SDS011;23258;49.718;11.082;2023-07-22T17:04:24;1.85;;;1.70;;
37383;SDS011;23258;49.718;11.082;2023-07-22T17:06:54;2.03;;;1.67;;
37383;SDS011;23258;49.718;11.082;2023-07-22T17:09:28;2.28;;;2.08;;
37383;SDS011;23258;49.718;11.082;2023-07-22T17:12:00;2.17;;;1.75;;
37383;SDS011;23258;49.718;11.082;2023-07-22T17:14:30;2.13;;;1.55;;
37383;SDS011;23258;49.718;11.082;2023-07-22T17:17:00;1.77;;;1.67;;
37383;SDS011;23258;49.718;11.082;2023-07-22T17:19:30;1.88;;;1.77;;
37383;SDS011;23258;49.718;11.082;2023-07-22T17:22:00;2.65;;;1.75;;
37383;SDS011;23258;49.718;11.082;2023-07-22T17:24:30;3.10;;;2.28;;
37383;SDS011;23258;49.718;11.082;2023-07-22T17:27:02;1.70;;;1.60;;
37383;SDS011;23258;49.718;11.082;2023-07-22T17:29:32;2.00;;;1.80;;
37383;SDS011;23258;49.718;11.082;2023-07-22T17:32:02;2.38;;;1.67;;
37383;SDS011;23258;49.718;11.082;2023-07-22T17:34:31;1.42;;;1.33;;
37383;SDS011;23258;49.718;11.082;2023-07-22T17:37:01;2.20;;;2.00;;
37383;SDS011;23258;49.718;11.082;2023-07-22T17:39:31;1.63;;;1.52;;
37383;SDS011;23258;49.718;11.082;2023-07-22T17:42:03;1.85;;;1.70;;
37383;SDS011;23258;49.718;11.082;2023-07-22T17:44:34;2.33;;;1.48;;
37383;SDS011;23258;49.718;11.082;2023-07-22T17:47:03;4.15;;;1.95;;
37383;SDS011;23258;49.718;11.082;2023-07-22T17:49:34;1.83;;;1.58;;
37383;SDS011;23258;49.718;11.082;2023-07-22T17:52:04;1.80;;;1.70;;
37383;SDS011;23258;49.718;11.082;2023-07-22T17:54:33;1.50;;;1.40;;
37383;SDS011;23258;49.718;11.082;2023-07-22T17:57:06;2.10;;;1.95;;
37383;SDS011;23258;49.718;11.082;2023-07-22T17:59:36;2.58;;;1.60;;
37383;SDS011;23258;49.718;11.082;2023-07-22T18:02:06;2.20;;;1.67;;
37383;SDS011;23258;49.718;11.082;2023-07-22T18:04:36;3.10;;;2.20;;
37383;SDS011;23258;49.718;11.082;2023-07-22T18:07:06;1.83;;;1.73;;
37383;SDS011;23258;49.718;11.082;2023-07-22T18:09:36;1.98;;;1.77;;
37383;SDS011;23258;49.718;11.082;2023-07-22T18:12:08;1.85;;;1.75;;
37383;SDS011;23258;49.718;11.082;2023-07-22T18:14:40;2.03;;;1.88;;
37383;SDS011;23258;49.718;11.082;2023-07-22T18:17:10;1.92;;;1.73;;
37383;SDS011;23258;49.718;11.082;2023-07-22T18:19:39;1.70;;;1.60;;
37383;SDS011;23258;49.718;11.082;2023-07-22T18:22:09;2.80;;;2.25;;
37383;SDS011;23258;49.718;11.082;2023-07-22T18:24:39;2.15;;;1.83;;
37383;SDS011;23258;49.718;11.082;2023-07-22T18:27:11;1.70;;;1.52;;
37383;SDS011;23258;49.718;11.082;2023-07-22T18:29:41;1.58;;;1.48;;
37383;SDS011;23258;49.718;11.082;2023-07-22T18:32:10;1.80;;;1.70;;
37383;SDS011;23258;49.718;11.082;2023-07-22T18:34:40;1.73;;;1.63;;
37383;SDS011;23258;49.718;11.082;2023-07-22T18:37:11;1.80;;;1.70;;
37383;SDS011;23258;49.718;11.082;2023-07-22T18:39:41;1.75;;;1.63;;
37383;SDS011;23258;49.718;11.082;2023-07-22T18:42:13;2.88;;;2.17;;
37383;SDS011;23258;49.718;11.082;2023-07-22T18:44:43;2.08;;;1.88;;
37383;SDS011;23258;49.718;11.082;2023-07-22T18:47:13;1.85;;;1.73;;
37383;SDS011;23258;49.718;11.082;2023-07-22T18:49:43;2.10;;;1.70;;
37383;SDS011;23258;49.718;11.082;2023-07-22T18:52:13;2.30;;;1.73;;
37383;SDS011;23258;49.718;11.082;2023-07-22T18:54:43;5.30;;;2.00;;
37383;SDS011;23258;49.718;11.082;2023-07-22T18:57:15;2.10;;;1.65;;
37383;SDS011;23258;49.718;11.082;2023-07-22T18:59:45;2.38;;;1.90;;
37383;SDS011;23258;49.718;11.082;2023-07-22T19:02:14;2.17;;;2.05;;
37383;SDS011;23258;49.718;11.082;2023-07-22T19:04:44;1.70;;;1.60;;
37383;SDS011;23258;49.718;11.082;2023-07-22T19:07:14;2.42;;;1.98;;
37383;SDS011;23258;49.718;11.082;2023-07-22T19:09:44;2.08;;;1.88;;
37383;SDS011;23258;49.718;11.082;2023-07-22T19:12:16;2.25;;;1.80;;
37383;SDS011;23258;49.718;11.082;2023-07-22T19:14:46;2.10;;;1.48;;
37383;SDS011;23258;49.718;11.082;2023-07-22T19:17:17;1.80;;;1.70;;
37383;SDS011;23258;49.718;11.082;2023-07-22T19:19:47;1.98;;;1.75;;
37383;SDS011;23258;49.718;11.082;2023-07-22T19:22:17;3.08;;;2.05;;
37383;SDS011;23258;49.718;11.082;2023-07-22T19:24:47;2.10;;;2.00;;
37383;SDS011;23258;49.718;11.082;2023-07-22T19:27:19;2.50;;;2.30;;
37383;SDS011;23258;49.718;11.082;2023-07-22T19:29:49;3.13;;;2.38;;
37383;SDS011;23258;49.718;11.082;2023-07-22T19:32:19;2.10;;;1.90;;
37383;SDS011;23258;49.718;11.082;2023-07-22T19:34:48;1.95;;;1.85;;
37383;SDS011;23258;49.718;11.082;2023-07-22T19:37:18;3.42;;;2.22;;
37383;SDS011;23258;49.718;11.082;2023-07-22T19:39:48;2.10;;;1.90;;
37383;SDS011;23258;49.718;11.082;2023-07-22T19:42:21;2.63;;;2.33;;
37383;SDS011;23258;49.718;11.082;2023-07-22T19:44:51;1.52;;;1.42;;
37383;SDS011;23258;49.718;11.082;2023-07-22T19:47:21;2.65;;;2.10;;
37383;SDS011;23258;49.718;11.082;2023-07-22T19:49:50;2.72;;;2.22;;
37383;SDS011;23258;49.718;11.082;2023-07-22T19:52:20;2.85;;;2.10;;
37383;SDS011;23258;49.718;11.082;2023-07-22T19:54:50;3.00;;;1.98;;
37383;SDS011;23258;49.718;11.082;2023-07-22T19:57:22;2.42;;;2.20;;
37383;SDS011;23258;49.718;11.082;2023-07-22T19:59:52;3.63;;;2.00;;
37383;SDS011;23258;49.718;11.082;2023-07-22T20:02:23;2.42;;;2.22;;
37383;SDS011;23258;49.718;11.082;2023-07-22T20:04:52;3.08;;;2.20;;
37383;SDS011;23258;49.718;11.082;2023-07-22T20:07:22;1.92;;;1.83;;
37383;SDS011;23258;49.718;11.082;2023-07-22T20:09:52;1.95;;;1.83;;
37383;SDS011;23258;49.718;11.082;2023-07-22T20:12:24;2.40;;;2.15;;
37383;SDS011;23258;49.718;11.082;2023-07-22T20:14:54;2.00;;;1.90;;
37383;SDS011;23258;49.718;11.082;2023-07-22T20:17:23;2.03;;;1.92;;
37383;SDS011;23258;49.718;11.082;2023-07-22T20:19:53;2.22;;;2.03;;
37383;SDS011;23258;49.718;11.082;2023-07-22T20:22:23;2.35;;;2.17;;
37383;SDS011;23258;49.718;11.082;2023-07-22T20:24:52;2.38;;;2.17;;
37383;SDS011;23258;49.718;11.082;2023-07-22T20:27:25;2.55;;;2.03;;
37383;SDS011;23258;49.718;11.082;2023-07-22T20:30:02;2.42;;;2.33;;
37383;SDS011;23258;49.718;11.082;2023-07-22T20:32:32;2.40;;;2.08;;
37383;SDS011;23258;49.718;11.082;2023-07-22T20:35:02;2.42;;;1.95;;
37383;SDS011;23258;49.718;11.082;2023-07-22T20:37:35;2.05;;;1.88;;
37383;SDS011;23258;49.718;11.082;2023-07-22T20:40:06;1.98;;;1.88;;
37383;SDS011;23258;49.718;11.082;2023-07-22T20:42:39;1.80;;;1.70;;
37383;SDS011;23258;49.718;11.082;2023-07-22T20:45:09;2.88;;;2.25;;
37383;SDS011;23258;49.718;11.082;2023-07-22T20:47:39;2.40;;;2.20;;
37383;SDS011;23258;49.718;11.082;2023-07-22T20:50:09;2.13;;;1.95;;
37383;SDS011;23258;49.718;11.082;2023-07-22T20:52:40;2.45;;;2.25;;
37383;SDS011;23258;49.718;11.082;2023-07-22T20:55:09;1.77;;;1.67;;
37383;SDS011;23258;49.718;11.082;2023-07-22T20:57:41;2.67;;;2.45;;
37383;SDS011;23258;49.718;11.082;2023-07-22T21:00:11;2.30;;;2.13;;